Hardinsburg, Kentucky
Current Conditions -  °F | °C
As of 7:58 PM on Tuesday 21 Oct 2014 (Local Time) from KFTK Reporting Station
Overcast Overcast  
Wind Chill: 53°   Ceiling: 5500
Heat Index: 53°   Visibility: 10mi
Dew Point: 41°   Wind: 6mph
Humidity: 65%   Direction: 360°N
Pressure: 30.12"   Gusts: NA
Location:  37.78°N, 86.46°W
Report Text: KFTK 220058Z AUTO 36005KT 10SM OVC055 12/05 A3012 RMK AO2 SLP203 T01150051
Loading
Personal Weather Stations






























Interactive Weather Map
Tropical Storm Tracking
New forecast layout! Learn more

10-Day Weather Forecast

Advertisements
Track Severe Weather on mobile